Terminal Aerodrome Forecast
Issued by NWS

Home | Current Version | Previous Version | Text Only | Print | Product List | Glossary On
Versions: 1 2 3 4 5 6 7 8 9 10 11 12 13 14 15 16 17 18 19 20 21 22 23 24
000
FTUS43 KDLH 290500 RRA
TAFHIB
TAF
KHIB 290546Z 2906/3006 16008KT P6SM VCSH OVC014
      TEMPO 2906/2910 3SM -SNPL OVC008
     FM291000 15007KT P6SM VCSH OVC009
     FM291700 18006KT P6SM OVC012
     FM292100 28006KT P6SM VCSH OVC008
     FM300300 30008KT P6SM OVC012=

USA.gov is the U.S. government's official web portal to all federal, state and local government web resources and services.